Sherman, Nebraska
Current Conditions -  °F | °C
As of 3:55 AM on Sunday 21 Dec 2014 (Local Time) from KHDE Reporting Station
Clear Clear  
Wind Chill: -2°   Ceiling: Unl
Heat Index:   Visibility: 10mi
Dew Point: -1°   Wind: 7mph
Humidity: 85%   Direction: 210°SSW
Pressure: 29.86"   Gusts: NA
Location:  40.3942°N, 99.1223°W
Report Text: KHDE 210955Z AUTO 21006KT 10SM CLR 02/M01 A2986 RMK AO2 T00151008
Loading
Personal Weather Stations






























Interactive Weather Map New forecast layout! Learn more

10-Day Weather Forecast

Advertisements
Track Severe Weather on mobile